OCA344 YPLC-YPPH
Flight info
| Callsign | OCA344 |
|---|---|
| Flight time | 2h 53m |
| Altitude | 34000 |
| Route | KAMBI Q32 NODEV Q10 MALUP |
| Aircraft | A319/M-SDE3FGHIRWY/LB1 |
Departure
| Time | 2026-04-24 23:25 |
|---|---|
| Airport | Port Lincoln Airport (YPLC) |
Arrival
| Time | 2026-04-25 02:18 |
|---|---|
| Airport | Perth International Airport (YPPH) |
| Time | Latitude | Longitude | Altitude | Speed | Heading |
|---|---|---|---|---|---|
| 2026-04-24 22:48 | -34.60355 | 135.87517 | 32 ft | 0 kts | 295° |
| 2026-04-24 23:18 | -34.60351 | 135.87512 | 36 ft | 4 kts | 109° |
| 2026-04-24 23:18 | -34.60359 | 135.87543 | 35 ft | 4 kts | 109° |
| 2026-04-24 23:19 | -34.60363 | 135.87553 | 35 ft | 0 kts | 123° |
| 2026-04-24 23:20 | -34.60364 | 135.87555 | 35 ft | 1 kts | 123° |
| 2026-04-24 23:21 | -34.60373 | 135.87574 | 34 ft | 5 kts | 119° |
| 2026-04-24 23:21 | -34.60388 | 135.87628 | 34 ft | 8 kts | 108° |
| 2026-04-24 23:21 | -34.60409 | 135.87703 | 33 ft | 10 kts | 108° |
| 2026-04-24 23:21 | -34.60434 | 135.87798 | 30 ft | 14 kts | 108° |
| 2026-04-24 23:22 | -34.60508 | 135.87876 | 31 ft | 15 kts | 155° |
| 2026-04-24 23:22 | -34.60609 | 135.87898 | 33 ft | 15 kts | 192° |
| 2026-04-24 23:22 | -34.60708 | 135.87862 | 34 ft | 16 kts | 197° |
| 2026-04-24 23:22 | -34.60820 | 135.87823 | 34 ft | 17 kts | 196° |
| 2026-04-24 23:23 | -34.60937 | 135.87782 | 35 ft | 18 kts | 196° |
| 2026-04-24 23:23 | -34.61060 | 135.87738 | 36 ft | 19 kts | 196° |
| 2026-04-24 23:23 | -34.61187 | 135.87682 | 35 ft | 17 kts | 208° |
| 2026-04-24 23:23 | -34.61254 | 135.87655 | 35 ft | 7 kts | 141° |
| 2026-04-24 23:24 | -34.61225 | 135.87679 | 33 ft | 7 kts | 3° |
| 2026-04-24 23:24 | -34.61177 | 135.87694 | 35 ft | 8 kts | 17° |
| 2026-04-24 23:24 | -34.60999 | 135.87758 | 36 ft | 66 kts | 16° |
| 2026-04-24 23:24 | -34.60270 | 135.88017 | 42 ft | 146 kts | 14° |
| 2026-04-24 23:25 | -34.59270 | 135.88390 | 825 ft | 146 kts | 15° |
| 2026-04-24 23:25 | -34.58323 | 135.88805 | 1780 ft | 147 kts | 12° |
| 2026-04-24 23:25 | -34.57340 | 135.89362 | 2248 ft | 167 kts | 16° |
| 2026-04-24 23:25 | -34.56225 | 135.90016 | 2569 ft | 189 kts | 17° |
| 2026-04-24 23:26 | -34.54955 | 135.90734 | 2980 ft | 213 kts | 17° |
| 2026-04-24 23:26 | -34.53487 | 135.91299 | 3482 ft | 229 kts | 356° |
| 2026-04-24 23:26 | -34.51911 | 135.90859 | 4041 ft | 242 kts | 326° |
| 2026-04-24 23:26 | -34.50713 | 135.89403 | 4823 ft | 249 kts | 300° |
| 2026-04-24 23:27 | -34.49861 | 135.87545 | 5795 ft | 256 kts | 297° |
| 2026-04-24 23:27 | -34.49025 | 135.85621 | 6759 ft | 260 kts | 299° |
| 2026-04-24 23:27 | -34.47924 | 135.83838 | 7606 ft | 268 kts | 308° |
| 2026-04-24 23:27 | -34.46738 | 135.82098 | 8619 ft | 269 kts | 309° |
| 2026-04-24 23:28 | -34.45542 | 135.80359 | 9497 ft | 274 kts | 309° |
| 2026-04-24 23:28 | -34.44301 | 135.78561 | 10295 ft | 284 kts | 309° |
| 2026-04-24 23:28 | -34.42985 | 135.76650 | 10664 ft | 306 kts | 310° |
| 2026-04-24 23:28 | -34.41597 | 135.74639 | 11383 ft | 315 kts | 310° |
| 2026-04-24 23:29 | -34.40184 | 135.72592 | 12238 ft | 318 kts | 310° |
| 2026-04-24 23:29 | -34.38757 | 135.70526 | 13128 ft | 321 kts | 310° |
| 2026-04-24 23:29 | -34.37319 | 135.68443 | 14006 ft | 324 kts | 310° |
| 2026-04-24 23:29 | -34.35872 | 135.66340 | 14782 ft | 326 kts | 310° |
| 2026-04-24 23:30 | -34.34416 | 135.64220 | 15557 ft | 328 kts | 309° |
| 2026-04-24 23:30 | -34.32950 | 135.62088 | 16325 ft | 331 kts | 309° |
| 2026-04-24 23:30 | -34.31472 | 135.59941 | 17082 ft | 333 kts | 309° |
| 2026-04-24 23:30 | -34.29980 | 135.57780 | 17839 ft | 336 kts | 309° |
| 2026-04-24 23:31 | -34.28472 | 135.55602 | 18569 ft | 339 kts | 309° |
| 2026-04-24 23:31 | -34.26952 | 135.53406 | 19201 ft | 342 kts | 309° |
| 2026-04-24 23:31 | -34.25420 | 135.51190 | 19847 ft | 345 kts | 309° |
| 2026-04-24 23:31 | -34.24400 | 135.49712 | 20275 ft | 347 kts | 309° |
| 2026-04-24 23:32 | -34.22849 | 135.47470 | 20933 ft | 349 kts | 309° |
| 2026-04-24 23:32 | -34.21281 | 135.45208 | 21568 ft | 352 kts | 309° |
| 2026-04-24 23:32 | -34.19702 | 135.42931 | 22204 ft | 355 kts | 309° |
| 2026-04-24 23:32 | -34.18113 | 135.40641 | 22839 ft | 357 kts | 308° |
| 2026-04-24 23:33 | -34.16511 | 135.38334 | 23469 ft | 360 kts | 308° |
| 2026-04-24 23:33 | -34.15004 | 135.35909 | 24035 ft | 362 kts | 300° |
| 2026-04-24 23:33 | -34.13923 | 135.33162 | 24545 ft | 364 kts | 289° |
| 2026-04-24 23:33 | -34.13330 | 135.30181 | 25051 ft | 368 kts | 278° |
| 2026-04-24 23:34 | -34.13143 | 135.27089 | 25554 ft | 371 kts | 275° |
| 2026-04-24 23:34 | -34.12987 | 135.23979 | 26049 ft | 373 kts | 275° |
| 2026-04-24 23:34 | -34.12826 | 135.20803 | 26539 ft | 375 kts | 275° |
| 2026-04-24 23:34 | -34.12665 | 135.17655 | 27013 ft | 377 kts | 275° |
| 2026-04-24 23:35 | -34.12503 | 135.14487 | 27481 ft | 380 kts | 275° |
| 2026-04-24 23:35 | -34.12341 | 135.11297 | 27942 ft | 382 kts | 275° |
| 2026-04-24 23:35 | -34.12179 | 135.08089 | 28397 ft | 384 kts | 275° |
| 2026-04-24 23:35 | -34.12013 | 135.04861 | 28852 ft | 386 kts | 275° |
| 2026-04-24 23:36 | -34.11844 | 135.01616 | 29302 ft | 389 kts | 275° |
| 2026-04-24 23:36 | -34.11674 | 134.98352 | 29775 ft | 391 kts | 275° |
| 2026-04-24 23:36 | -34.11503 | 134.95072 | 30225 ft | 393 kts | 275° |
| 2026-04-24 23:36 | -34.11330 | 134.91776 | 30606 ft | 395 kts | 275° |
| 2026-04-24 23:37 | -34.11156 | 134.88462 | 30975 ft | 396 kts | 275° |
| 2026-04-24 23:37 | -34.10983 | 134.85139 | 31344 ft | 398 kts | 275° |
| 2026-04-24 23:37 | -34.10626 | 134.78454 | 32063 ft | 401 kts | 275° |
| 2026-04-24 23:38 | -34.10443 | 134.75091 | 32413 ft | 402 kts | 275° |
| 2026-04-24 23:38 | -34.10257 | 134.71725 | 32867 ft | 400 kts | 275° |
| 2026-04-24 23:38 | -34.10073 | 134.68435 | 33416 ft | 397 kts | 275° |
| 2026-04-24 23:38 | -34.09890 | 134.65127 | 33953 ft | 394 kts | 275° |
| 2026-04-24 23:39 | -34.09711 | 134.61826 | 34167 ft | 393 kts | 275° |
| 2026-04-24 23:39 | -34.09537 | 134.58579 | 34208 ft | 381 kts | 275° |
| 2026-04-24 23:39 | -34.09197 | 134.52338 | 34205 ft | 368 kts | 275° |
| 2026-04-24 23:40 | -34.08843 | 134.46189 | 34205 ft | 367 kts | 275° |
| 2026-04-24 23:40 | -34.08486 | 134.40056 | 34208 ft | 367 kts | 275° |
| 2026-04-24 23:41 | -34.08135 | 134.33929 | 34205 ft | 365 kts | 275° |
| 2026-04-24 23:41 | -34.07784 | 134.27819 | 34200 ft | 365 kts | 275° |
| 2026-04-24 23:42 | -34.07434 | 134.21714 | 34224 ft | 365 kts | 275° |
| 2026-04-24 23:42 | -34.07078 | 134.15617 | 34218 ft | 364 kts | 275° |
| 2026-04-24 23:43 | -34.06714 | 134.09523 | 34213 ft | 364 kts | 275° |
| 2026-04-24 23:43 | -34.06352 | 134.03430 | 34208 ft | 364 kts | 275° |
| 2026-04-24 23:44 | -34.05984 | 133.97350 | 34204 ft | 363 kts | 275° |
| 2026-04-24 23:44 | -34.05615 | 133.91282 | 34199 ft | 362 kts | 275° |
| 2026-04-24 23:45 | -34.05243 | 133.85225 | 34202 ft | 362 kts | 275° |
| 2026-04-24 23:45 | -34.04866 | 133.79179 | 34213 ft | 361 kts | 275° |
| 2026-04-24 23:46 | -34.04490 | 133.73145 | 34213 ft | 360 kts | 275° |
| 2026-04-24 23:46 | -34.04115 | 133.67129 | 34212 ft | 360 kts | 276° |
| 2026-04-24 23:47 | -34.03733 | 133.61119 | 34197 ft | 359 kts | 276° |
| 2026-04-24 23:47 | -34.03350 | 133.55121 | 34200 ft | 359 kts | 276° |
| 2026-04-24 23:48 | -34.02961 | 133.49132 | 34197 ft | 358 kts | 276° |
| 2026-04-24 23:48 | -34.02572 | 133.43144 | 34195 ft | 358 kts | 276° |
| 2026-04-24 23:49 | -34.02188 | 133.37171 | 34223 ft | 357 kts | 276° |
| 2026-04-24 23:49 | -34.01798 | 133.31213 | 34218 ft | 356 kts | 276° |
| 2026-04-24 23:50 | -34.01406 | 133.25268 | 34211 ft | 356 kts | 276° |
| 2026-04-24 23:50 | -34.01012 | 133.19326 | 34222 ft | 355 kts | 276° |
| 2026-04-24 23:51 | -34.00617 | 133.13396 | 34221 ft | 354 kts | 276° |
| 2026-04-24 23:51 | -34.00215 | 133.07483 | 34219 ft | 354 kts | 276° |
| 2026-04-24 23:52 | -33.99811 | 133.01577 | 34234 ft | 353 kts | 276° |
| 2026-04-24 23:52 | -33.99406 | 132.95688 | 34229 ft | 352 kts | 276° |
| 2026-04-24 23:53 | -33.98996 | 132.89817 | 34224 ft | 351 kts | 276° |
| 2026-04-24 23:53 | -33.98590 | 132.83959 | 34192 ft | 351 kts | 276° |
| 2026-04-24 23:54 | -33.98186 | 132.78107 | 34190 ft | 350 kts | 276° |
| 2026-04-24 23:54 | -33.97772 | 132.72255 | 34192 ft | 350 kts | 276° |
| 2026-04-24 23:55 | -33.97355 | 132.66405 | 34191 ft | 351 kts | 276° |
| 2026-04-24 23:55 | -33.96939 | 132.60556 | 34218 ft | 350 kts | 276° |
| 2026-04-24 23:56 | -33.96519 | 132.54755 | 34221 ft | 349 kts | 277° |
| 2026-04-24 23:56 | -33.96092 | 132.48938 | 34219 ft | 348 kts | 277° |
| 2026-04-24 23:57 | -33.95670 | 132.43127 | 34191 ft | 348 kts | 276° |
| 2026-04-24 23:57 | -33.95243 | 132.37326 | 34220 ft | 347 kts | 277° |
| 2026-04-24 23:58 | -33.94817 | 132.31537 | 34219 ft | 347 kts | 277° |
| 2026-04-24 23:58 | -33.94388 | 132.25762 | 34214 ft | 346 kts | 277° |
| 2026-04-24 23:59 | -33.93955 | 132.19997 | 34214 ft | 346 kts | 277° |
| 2026-04-24 23:59 | -33.93523 | 132.14235 | 34236 ft | 345 kts | 277° |
| 2026-04-25 00:00 | -33.93089 | 132.08490 | 34194 ft | 344 kts | 277° |
| 2026-04-25 00:00 | -33.92657 | 132.02751 | 34200 ft | 344 kts | 277° |
| 2026-04-25 00:01 | -33.92220 | 131.97017 | 34233 ft | 344 kts | 277° |
| 2026-04-25 00:01 | -33.91771 | 131.91290 | 34231 ft | 343 kts | 277° |
| 2026-04-25 00:02 | -33.91322 | 131.85577 | 34229 ft | 343 kts | 277° |
| 2026-04-25 00:02 | -33.90871 | 131.79870 | 34225 ft | 342 kts | 277° |
| 2026-04-25 00:03 | -33.90427 | 131.74164 | 34253 ft | 342 kts | 277° |
| 2026-04-25 00:03 | -33.89978 | 131.68475 | 34216 ft | 341 kts | 277° |
| 2026-04-25 00:04 | -33.89525 | 131.62802 | 34214 ft | 340 kts | 277° |
| 2026-04-25 00:04 | -33.89072 | 131.57134 | 34215 ft | 340 kts | 277° |
| 2026-04-25 00:05 | -33.88615 | 131.51479 | 34239 ft | 339 kts | 277° |
| 2026-04-25 00:05 | -33.88153 | 131.45842 | 34233 ft | 338 kts | 277° |
| 2026-04-25 00:06 | -33.87701 | 131.40251 | 34230 ft | 338 kts | 277° |
| 2026-04-25 00:06 | -33.87234 | 131.34602 | 34253 ft | 337 kts | 278° |
| 2026-04-25 00:07 | -33.86767 | 131.29031 | 34218 ft | 336 kts | 277° |
| 2026-04-25 00:07 | -33.86295 | 131.23443 | 34222 ft | 336 kts | 277° |
| 2026-04-25 00:08 | -33.85831 | 131.17860 | 34223 ft | 335 kts | 277° |
| 2026-04-25 00:08 | -33.85361 | 131.12282 | 34246 ft | 335 kts | 278° |
| 2026-04-25 00:09 | -33.84889 | 131.06715 | 34240 ft | 334 kts | 278° |
| 2026-04-25 00:09 | -33.84416 | 131.01160 | 34233 ft | 333 kts | 278° |
| 2026-04-25 00:10 | -33.83933 | 130.95614 | 34226 ft | 333 kts | 278° |
| 2026-04-25 00:10 | -33.83448 | 130.90076 | 34249 ft | 333 kts | 278° |
| 2026-04-25 00:11 | -33.83047 | 130.85474 | 34218 ft | 333 kts | 278° |
| 2026-04-25 00:11 | -33.82492 | 130.79004 | 34213 ft | 333 kts | 278° |
| 2026-04-25 00:12 | -33.82008 | 130.73472 | 34214 ft | 333 kts | 278° |
| 2026-04-25 00:12 | -33.81518 | 130.67937 | 34214 ft | 333 kts | 278° |
| 2026-04-25 00:13 | -33.81024 | 130.62403 | 34217 ft | 333 kts | 278° |
| 2026-04-25 00:13 | -33.80536 | 130.56869 | 34215 ft | 333 kts | 278° |
| 2026-04-25 00:14 | -33.80037 | 130.51337 | 34217 ft | 333 kts | 278° |
| 2026-04-25 00:14 | -33.79622 | 130.46744 | 34211 ft | 332 kts | 278° |
| 2026-04-25 00:15 | -33.79123 | 130.41220 | 34213 ft | 332 kts | 278° |
| 2026-04-25 00:15 | -33.78621 | 130.35701 | 34218 ft | 332 kts | 278° |
| 2026-04-25 00:16 | -33.78117 | 130.30192 | 34218 ft | 331 kts | 278° |
| 2026-04-25 00:16 | -33.77615 | 130.24691 | 34240 ft | 331 kts | 279° |
| 2026-04-25 00:17 | -33.77103 | 130.19191 | 34235 ft | 331 kts | 279° |
| 2026-04-25 00:17 | -33.76590 | 130.13701 | 34232 ft | 331 kts | 279° |
| 2026-04-25 00:18 | -33.76084 | 130.08209 | 34230 ft | 330 kts | 279° |
| 2026-04-25 00:18 | -33.75577 | 130.02722 | 34235 ft | 330 kts | 279° |
| 2026-04-25 00:19 | -33.75063 | 129.97244 | 34235 ft | 330 kts | 279° |
| 2026-04-25 00:19 | -33.74540 | 129.91775 | 34233 ft | 329 kts | 279° |
| 2026-04-25 00:20 | -33.74016 | 129.86314 | 34232 ft | 329 kts | 279° |
| 2026-04-25 00:20 | -33.73498 | 129.80854 | 34232 ft | 329 kts | 279° |
| 2026-04-25 00:21 | -33.72978 | 129.75402 | 34259 ft | 328 kts | 280° |
| 2026-04-25 00:21 | -33.72453 | 129.69956 | 34251 ft | 328 kts | 280° |
| 2026-04-25 00:22 | -33.71927 | 129.64517 | 34242 ft | 328 kts | 280° |
| 2026-04-25 00:22 | -33.71392 | 129.59085 | 34202 ft | 328 kts | 279° |
| 2026-04-25 00:23 | -33.70857 | 129.53648 | 34235 ft | 328 kts | 280° |
| 2026-04-25 00:23 | -33.70330 | 129.48216 | 34230 ft | 327 kts | 280° |
| 2026-04-25 00:24 | -33.69796 | 129.42786 | 34227 ft | 327 kts | 280° |
| 2026-04-25 00:24 | -33.69257 | 129.37361 | 34225 ft | 327 kts | 280° |
| 2026-04-25 00:25 | -33.68718 | 129.31939 | 34249 ft | 327 kts | 281° |
| 2026-04-25 00:25 | -33.68178 | 129.26522 | 34242 ft | 327 kts | 281° |
| 2026-04-25 00:26 | -33.67636 | 129.21110 | 34233 ft | 326 kts | 281° |
| 2026-04-25 00:26 | -33.67086 | 129.15703 | 34237 ft | 326 kts | 281° |
| 2026-04-25 00:27 | -33.66536 | 129.10298 | 34272 ft | 326 kts | 281° |
| 2026-04-25 00:27 | -33.65983 | 129.04894 | 34247 ft | 326 kts | 281° |
| 2026-04-25 00:28 | -33.65440 | 128.99529 | 34237 ft | 326 kts | 281° |
| 2026-04-25 00:28 | -33.64893 | 128.94125 | 34231 ft | 326 kts | 281° |
| 2026-04-25 00:29 | -33.64329 | 128.88726 | 34274 ft | 326 kts | 281° |
| 2026-04-25 00:29 | -33.63765 | 128.83316 | 34248 ft | 327 kts | 281° |
| 2026-04-25 00:30 | -33.63202 | 128.77893 | 34185 ft | 328 kts | 281° |
| 2026-04-25 00:30 | -33.62639 | 128.72477 | 34216 ft | 327 kts | 281° |
| 2026-04-25 00:31 | -33.62075 | 128.67063 | 34224 ft | 327 kts | 281° |
| 2026-04-25 00:31 | -33.61504 | 128.61653 | 34248 ft | 327 kts | 281° |
| 2026-04-25 00:32 | -33.60929 | 128.56230 | 34237 ft | 328 kts | 281° |
| 2026-04-25 00:32 | -33.60352 | 128.50796 | 34232 ft | 329 kts | 281° |
| 2026-04-25 00:33 | -33.59773 | 128.45348 | 34226 ft | 329 kts | 281° |
| 2026-04-25 00:33 | -33.59189 | 128.39904 | 34232 ft | 329 kts | 281° |
| 2026-04-25 00:34 | -33.58599 | 128.34454 | 34232 ft | 329 kts | 281° |
| 2026-04-25 00:34 | -33.58010 | 128.29023 | 34224 ft | 328 kts | 281° |
| 2026-04-25 00:35 | -33.57424 | 128.23596 | 34233 ft | 328 kts | 281° |
| 2026-04-25 00:35 | -33.56833 | 128.18183 | 34262 ft | 328 kts | 281° |
| 2026-04-25 00:36 | -33.56241 | 128.12754 | 34242 ft | 329 kts | 281° |
| 2026-04-25 00:36 | -33.55644 | 128.07315 | 34239 ft | 329 kts | 281° |
| 2026-04-25 00:37 | -33.55036 | 128.01868 | 34238 ft | 330 kts | 281° |
| 2026-04-25 00:37 | -33.54427 | 127.96418 | 34236 ft | 330 kts | 281° |
| 2026-04-25 00:38 | -33.53837 | 127.90992 | 34237 ft | 331 kts | 280° |
| 2026-04-25 00:38 | -33.53246 | 127.85469 | 34202 ft | 333 kts | 281° |
| 2026-04-25 00:39 | -33.52632 | 127.79973 | 34217 ft | 333 kts | 281° |
| 2026-04-25 00:39 | -33.52011 | 127.74473 | 34225 ft | 333 kts | 281° |
| 2026-04-25 00:40 | -33.51395 | 127.69009 | 34224 ft | 333 kts | 280° |
| 2026-04-25 00:40 | -33.50784 | 127.63489 | 34226 ft | 335 kts | 280° |
| 2026-04-25 00:41 | -33.50151 | 127.57940 | 34225 ft | 337 kts | 280° |
| 2026-04-25 00:41 | -33.49514 | 127.52368 | 34227 ft | 338 kts | 280° |
| 2026-04-25 00:42 | -33.48875 | 127.46786 | 34259 ft | 339 kts | 279° |
| 2026-04-25 00:42 | -33.48243 | 127.41170 | 34235 ft | 342 kts | 280° |
| 2026-04-25 00:43 | -33.47591 | 127.35520 | 34247 ft | 342 kts | 280° |
| 2026-04-25 00:43 | -33.46936 | 127.29877 | 34248 ft | 342 kts | 280° |
| 2026-04-25 00:44 | -33.46286 | 127.24234 | 34244 ft | 342 kts | 280° |
| 2026-04-25 00:44 | -33.45642 | 127.18584 | 34232 ft | 343 kts | 278° |
| 2026-04-25 00:45 | -33.44974 | 127.12903 | 34224 ft | 346 kts | 279° |
| 2026-04-25 00:45 | -33.44297 | 127.07184 | 34229 ft | 348 kts | 279° |
| 2026-04-25 00:46 | -33.43619 | 127.01436 | 34231 ft | 349 kts | 279° |
| 2026-04-25 00:47 | -33.42598 | 126.92789 | 34230 ft | 351 kts | 278° |
| 2026-04-25 00:47 | -33.41911 | 126.86995 | 34233 ft | 352 kts | 278° |
| 2026-04-25 00:48 | -33.41211 | 126.81185 | 34233 ft | 353 kts | 278° |
| 2026-04-25 00:48 | -33.40505 | 126.75363 | 34236 ft | 354 kts | 278° |
| 2026-04-25 00:49 | -33.39810 | 126.69521 | 34242 ft | 355 kts | 277° |
| 2026-04-25 00:49 | -33.39106 | 126.63647 | 34233 ft | 358 kts | 278° |
| 2026-04-25 00:50 | -33.38386 | 126.57741 | 34232 ft | 359 kts | 277° |
| 2026-04-25 00:50 | -33.37664 | 126.51816 | 34222 ft | 360 kts | 278° |
| 2026-04-25 00:51 | -33.36943 | 126.45894 | 34234 ft | 360 kts | 277° |
| 2026-04-25 00:51 | -33.36211 | 126.39946 | 34237 ft | 362 kts | 277° |
| 2026-04-25 00:52 | -33.35479 | 126.33977 | 34241 ft | 363 kts | 277° |
| 2026-04-25 00:52 | -33.34740 | 126.27994 | 34243 ft | 364 kts | 277° |
| 2026-04-25 00:53 | -33.33988 | 126.21983 | 34261 ft | 371 kts | 276° |
| 2026-04-25 00:53 | -33.33223 | 126.15829 | 34264 ft | 376 kts | 276° |
| 2026-04-25 00:54 | -33.32444 | 126.09639 | 34264 ft | 377 kts | 276° |
| 2026-04-25 00:54 | -33.31668 | 126.03463 | 34256 ft | 373 kts | 277° |
| 2026-04-25 00:55 | -33.30898 | 125.97358 | 34265 ft | 371 kts | 277° |
| 2026-04-25 00:55 | -33.30126 | 125.91265 | 34263 ft | 370 kts | 277° |
| 2026-04-25 00:56 | -33.29347 | 125.85179 | 34260 ft | 370 kts | 277° |
| 2026-04-25 00:56 | -33.28568 | 125.79090 | 34259 ft | 371 kts | 277° |
| 2026-04-25 00:57 | -33.27792 | 125.73039 | 34244 ft | 372 kts | 275° |
| 2026-04-25 00:57 | -33.26998 | 125.66908 | 34236 ft | 374 kts | 276° |
| 2026-04-25 00:58 | -33.26202 | 125.60739 | 34237 ft | 377 kts | 276° |
| 2026-04-25 00:58 | -33.25399 | 125.54551 | 34252 ft | 377 kts | 276° |
| 2026-04-25 00:59 | -33.24725 | 125.49408 | 34248 ft | 377 kts | 275° |
| 2026-04-25 00:59 | -33.23920 | 125.43210 | 34235 ft | 378 kts | 275° |
| 2026-04-25 01:00 | -33.23104 | 125.36988 | 34251 ft | 380 kts | 275° |
| 2026-04-25 01:00 | -33.22272 | 125.30743 | 34250 ft | 382 kts | 275° |
| 2026-04-25 01:01 | -33.21436 | 125.24480 | 34246 ft | 382 kts | 275° |
| 2026-04-25 01:01 | -33.20614 | 125.18193 | 34240 ft | 385 kts | 274° |
| 2026-04-25 01:02 | -33.19771 | 125.11851 | 34237 ft | 388 kts | 274° |
| 2026-04-25 01:02 | -33.18906 | 125.05492 | 34247 ft | 388 kts | 275° |
| 2026-04-25 01:03 | -33.18051 | 124.99138 | 34267 ft | 387 kts | 275° |
| 2026-04-25 01:03 | -33.17188 | 124.92776 | 34244 ft | 389 kts | 274° |
| 2026-04-25 01:04 | -33.16321 | 124.86377 | 34243 ft | 392 kts | 274° |
| 2026-04-25 01:04 | -33.15437 | 124.79940 | 34249 ft | 394 kts | 274° |
| 2026-04-25 01:05 | -33.14541 | 124.73483 | 34235 ft | 395 kts | 274° |
| 2026-04-25 01:05 | -33.13645 | 124.66953 | 34252 ft | 402 kts | 273° |
| 2026-04-25 01:06 | -33.12728 | 124.60364 | 34262 ft | 403 kts | 273° |
| 2026-04-25 01:06 | -33.11801 | 124.53757 | 34263 ft | 404 kts | 273° |
| 2026-04-25 01:07 | -33.10872 | 124.47148 | 34254 ft | 404 kts | 272° |
| 2026-04-25 01:07 | -33.09946 | 124.40498 | 34258 ft | 410 kts | 272° |
| 2026-04-25 01:08 | -33.09001 | 124.33766 | 34265 ft | 413 kts | 272° |
| 2026-04-25 01:08 | -33.08035 | 124.27019 | 34275 ft | 413 kts | 272° |
| 2026-04-25 01:09 | -33.07083 | 124.20311 | 34255 ft | 413 kts | 272° |
| 2026-04-25 01:09 | -33.06123 | 124.13553 | 34254 ft | 414 kts | 272° |
| 2026-04-25 01:10 | -33.05155 | 124.06793 | 34265 ft | 414 kts | 272° |
| 2026-04-25 01:10 | -33.04187 | 124.00033 | 34276 ft | 414 kts | 272° |
| 2026-04-25 01:11 | -33.03210 | 123.93278 | 34266 ft | 414 kts | 272° |
| 2026-04-25 01:11 | -33.02223 | 123.86524 | 34276 ft | 414 kts | 272° |
| 2026-04-25 01:12 | -33.01235 | 123.79765 | 34277 ft | 414 kts | 272° |
| 2026-04-25 01:12 | -33.00250 | 123.73006 | 34282 ft | 414 kts | 272° |
| 2026-04-25 01:13 | -32.99263 | 123.66242 | 34264 ft | 414 kts | 273° |
| 2026-04-25 01:13 | -32.98261 | 123.59478 | 34273 ft | 414 kts | 273° |
| 2026-04-25 01:14 | -32.97261 | 123.52730 | 34283 ft | 414 kts | 273° |
| 2026-04-25 01:14 | -32.96261 | 123.45978 | 34290 ft | 414 kts | 273° |
| 2026-04-25 01:15 | -32.95255 | 123.39224 | 34294 ft | 414 kts | 273° |
| 2026-04-25 01:15 | -32.94247 | 123.32472 | 34300 ft | 414 kts | 273° |
| 2026-04-25 01:16 | -32.93238 | 123.25713 | 34302 ft | 414 kts | 273° |
| 2026-04-25 01:16 | -32.92220 | 123.18964 | 34300 ft | 414 kts | 273° |
| 2026-04-25 01:17 | -32.91196 | 123.12216 | 34275 ft | 414 kts | 274° |
| 2026-04-25 01:17 | -32.90172 | 123.05472 | 34286 ft | 414 kts | 274° |
| 2026-04-25 01:18 | -32.89144 | 122.98746 | 34293 ft | 413 kts | 274° |
| 2026-04-25 01:18 | -32.88119 | 122.92060 | 34295 ft | 413 kts | 274° |
| 2026-04-25 01:19 | -32.87084 | 122.85336 | 34288 ft | 413 kts | 274° |
| 2026-04-25 01:19 | -32.86041 | 122.78608 | 34287 ft | 413 kts | 274° |
| 2026-04-25 01:20 | -32.84999 | 122.71885 | 34298 ft | 414 kts | 274° |
| 2026-04-25 01:20 | -32.83959 | 122.65155 | 34289 ft | 414 kts | 275° |
| 2026-04-25 01:21 | -32.82916 | 122.58431 | 34286 ft | 414 kts | 275° |
| 2026-04-25 01:21 | -32.81864 | 122.51701 | 34293 ft | 414 kts | 275° |
| 2026-04-25 01:22 | -32.80806 | 122.44972 | 34297 ft | 414 kts | 275° |
| 2026-04-25 01:22 | -32.79749 | 122.38244 | 34301 ft | 414 kts | 275° |
| 2026-04-25 01:23 | -32.78689 | 122.31520 | 34286 ft | 414 kts | 275° |
| 2026-04-25 01:23 | -32.77621 | 122.24790 | 34292 ft | 415 kts | 275° |
| 2026-04-25 01:24 | -32.76544 | 122.18052 | 34296 ft | 415 kts | 275° |
| 2026-04-25 01:24 | -32.75461 | 122.11305 | 34297 ft | 416 kts | 276° |
| 2026-04-25 01:25 | -32.74381 | 122.04560 | 34291 ft | 415 kts | 276° |
| 2026-04-25 01:25 | -32.73309 | 121.97862 | 34291 ft | 416 kts | 276° |
| 2026-04-25 01:26 | -32.72214 | 121.91121 | 34293 ft | 416 kts | 276° |
| 2026-04-25 01:26 | -32.71153 | 121.84373 | 34298 ft | 415 kts | 274° |
| 2026-04-25 01:27 | -32.70424 | 121.77587 | 34293 ft | 414 kts | 271° |
| 2026-04-25 01:27 | -32.69825 | 121.70792 | 34299 ft | 415 kts | 271° |
| 2026-04-25 01:28 | -32.68822 | 121.60581 | 34301 ft | 416 kts | 272° |
| 2026-04-25 01:28 | -32.68091 | 121.53773 | 34300 ft | 416 kts | 273° |
| 2026-04-25 01:29 | -32.67357 | 121.46975 | 34296 ft | 415 kts | 273° |
| 2026-04-25 01:29 | -32.66639 | 121.40172 | 34300 ft | 415 kts | 273° |
| 2026-04-25 01:30 | -32.65918 | 121.33371 | 34302 ft | 416 kts | 273° |
| 2026-04-25 01:30 | -32.65186 | 121.26564 | 34304 ft | 416 kts | 273° |
| 2026-04-25 01:31 | -32.64448 | 121.19751 | 34298 ft | 416 kts | 273° |
| 2026-04-25 01:31 | -32.63712 | 121.12929 | 34302 ft | 417 kts | 273° |
| 2026-04-25 01:32 | -32.62972 | 121.06106 | 34312 ft | 417 kts | 273° |
| 2026-04-25 01:32 | -32.62226 | 120.99282 | 34313 ft | 417 kts | 273° |
| 2026-04-25 01:33 | -32.61474 | 120.92462 | 34294 ft | 417 kts | 274° |
| 2026-04-25 01:33 | -32.60722 | 120.85653 | 34297 ft | 417 kts | 274° |
| 2026-04-25 01:34 | -32.59980 | 120.78884 | 34299 ft | 417 kts | 274° |
| 2026-04-25 01:34 | -32.59224 | 120.72071 | 34301 ft | 417 kts | 274° |
| 2026-04-25 01:35 | -32.58456 | 120.65263 | 34307 ft | 417 kts | 274° |
| 2026-04-25 01:35 | -32.57687 | 120.58452 | 34305 ft | 417 kts | 274° |
| 2026-04-25 01:36 | -32.56922 | 120.51643 | 34306 ft | 417 kts | 274° |
| 2026-04-25 01:36 | -32.56148 | 120.44831 | 34306 ft | 417 kts | 274° |
| 2026-04-25 01:37 | -32.55365 | 120.38030 | 34294 ft | 417 kts | 274° |
| 2026-04-25 01:37 | -32.54577 | 120.31220 | 34299 ft | 417 kts | 275° |
| 2026-04-25 01:38 | -32.53784 | 120.24409 | 34306 ft | 417 kts | 275° |
| 2026-04-25 01:38 | -32.52998 | 120.17589 | 34312 ft | 418 kts | 274° |
| 2026-04-25 01:39 | -32.52209 | 120.10775 | 34311 ft | 417 kts | 275° |
| 2026-04-25 01:39 | -32.51406 | 120.03963 | 34314 ft | 417 kts | 275° |
| 2026-04-25 01:40 | -32.50602 | 119.97154 | 34314 ft | 417 kts | 275° |
| 2026-04-25 01:40 | -32.49802 | 119.90347 | 34313 ft | 417 kts | 275° |
| 2026-04-25 01:41 | -32.48994 | 119.83549 | 34311 ft | 417 kts | 275° |
| 2026-04-25 01:41 | -32.48179 | 119.76756 | 34309 ft | 417 kts | 275° |
| 2026-04-25 01:42 | -32.47365 | 119.69964 | 34308 ft | 417 kts | 275° |
| 2026-04-25 01:42 | -32.46539 | 119.63168 | 34312 ft | 417 kts | 275° |
| 2026-04-25 01:43 | -32.45721 | 119.56369 | 34314 ft | 417 kts | 275° |
| 2026-04-25 01:43 | -32.44897 | 119.49577 | 34311 ft | 417 kts | 275° |
| 2026-04-25 01:44 | -32.44068 | 119.42791 | 34312 ft | 416 kts | 275° |
| 2026-04-25 01:44 | -32.43371 | 119.37153 | 34314 ft | 416 kts | 275° |
| 2026-04-25 01:45 | -32.42537 | 119.30370 | 34318 ft | 416 kts | 275° |
| 2026-04-25 01:45 | -32.41698 | 119.23588 | 34316 ft | 417 kts | 276° |
| 2026-04-25 01:46 | -32.40855 | 119.16802 | 34318 ft | 417 kts | 276° |
| 2026-04-25 01:46 | -32.40008 | 119.10008 | 34321 ft | 417 kts | 276° |
| 2026-04-25 01:47 | -32.39149 | 119.03212 | 34321 ft | 418 kts | 276° |
| 2026-04-25 01:47 | -32.38289 | 118.96414 | 34323 ft | 418 kts | 276° |
| 2026-04-25 01:48 | -32.37423 | 118.89617 | 34317 ft | 418 kts | 276° |
| 2026-04-25 01:48 | -32.36559 | 118.82811 | 34319 ft | 419 kts | 276° |
| 2026-04-25 01:49 | -32.35695 | 118.76002 | 34321 ft | 419 kts | 276° |
| 2026-04-25 01:49 | -32.34824 | 118.69191 | 34323 ft | 419 kts | 276° |
| 2026-04-25 01:50 | -32.33943 | 118.62383 | 34317 ft | 419 kts | 276° |
| 2026-04-25 01:50 | -32.33165 | 118.55555 | 34319 ft | 419 kts | 274° |
| 2026-04-25 01:51 | -32.32631 | 118.48747 | 34318 ft | 418 kts | 272° |
| 2026-04-25 01:51 | -32.32120 | 118.41896 | 34322 ft | 418 kts | 273° |
| 2026-04-25 01:52 | -32.31547 | 118.35052 | 34321 ft | 419 kts | 274° |
| 2026-04-25 01:52 | -32.30933 | 118.28206 | 34324 ft | 419 kts | 274° |
| 2026-04-25 01:53 | -32.30323 | 118.21360 | 34325 ft | 419 kts | 274° |
| 2026-04-25 01:53 | -32.29721 | 118.14507 | 34326 ft | 419 kts | 274° |
| 2026-04-25 01:54 | -32.29110 | 118.07657 | 34327 ft | 419 kts | 274° |
| 2026-04-25 01:54 | -32.28494 | 118.00796 | 34241 ft | 424 kts | 274° |
| 2026-04-25 01:55 | -32.28182 | 117.97314 | 33972 ft | 427 kts | 274° |
| 2026-04-25 01:55 | -32.27867 | 117.93829 | 33704 ft | 426 kts | 274° |
| 2026-04-25 01:55 | -32.27552 | 117.90358 | 33441 ft | 424 kts | 274° |
| 2026-04-25 01:55 | -32.27236 | 117.86899 | 33181 ft | 422 kts | 274° |
| 2026-04-25 01:56 | -32.26921 | 117.83456 | 32923 ft | 421 kts | 274° |
| 2026-04-25 01:56 | -32.26609 | 117.80027 | 32667 ft | 419 kts | 274° |
| 2026-04-25 01:56 | -32.26298 | 117.76613 | 32409 ft | 416 kts | 274° |
| 2026-04-25 01:56 | -32.25989 | 117.73235 | 31967 ft | 412 kts | 274° |
| 2026-04-25 01:57 | -32.25375 | 117.66526 | 31016 ft | 409 kts | 274° |
| 2026-04-25 01:57 | -32.25068 | 117.63197 | 30556 ft | 407 kts | 274° |
| 2026-04-25 01:57 | -32.24758 | 117.59877 | 30056 ft | 406 kts | 274° |
| 2026-04-25 01:58 | -32.24450 | 117.56580 | 29621 ft | 402 kts | 274° |
| 2026-04-25 01:58 | -32.24143 | 117.53314 | 29176 ft | 399 kts | 274° |
| 2026-04-25 01:58 | -32.23836 | 117.50071 | 28757 ft | 396 kts | 274° |
| 2026-04-25 01:58 | -32.23529 | 117.46851 | 28327 ft | 393 kts | 275° |
| 2026-04-25 01:59 | -32.23221 | 117.43645 | 27899 ft | 391 kts | 275° |
| 2026-04-25 01:59 | -32.22919 | 117.40461 | 27469 ft | 390 kts | 274° |
| 2026-04-25 01:59 | -32.22620 | 117.37286 | 27024 ft | 388 kts | 275° |
| 2026-04-25 01:59 | -32.22323 | 117.34127 | 26574 ft | 387 kts | 275° |
| 2026-04-25 02:00 | -32.22026 | 117.30973 | 26113 ft | 386 kts | 275° |
| 2026-04-25 02:00 | -32.21729 | 117.27832 | 25649 ft | 385 kts | 275° |
| 2026-04-25 02:00 | -32.21434 | 117.24697 | 25170 ft | 384 kts | 275° |
| 2026-04-25 02:00 | -32.21137 | 117.21605 | 24690 ft | 384 kts | 275° |
| 2026-04-25 02:01 | -32.20832 | 117.18473 | 24200 ft | 384 kts | 275° |
| 2026-04-25 02:01 | -32.20525 | 117.15339 | 23659 ft | 384 kts | 275° |
| 2026-04-25 02:01 | -32.20221 | 117.12210 | 23150 ft | 382 kts | 275° |
| 2026-04-25 02:01 | -32.19918 | 117.09102 | 22683 ft | 380 kts | 275° |
| 2026-04-25 02:02 | -32.19617 | 117.06015 | 22200 ft | 378 kts | 275° |
| 2026-04-25 02:02 | -32.19316 | 117.02943 | 21739 ft | 375 kts | 275° |
| 2026-04-25 02:02 | -32.19017 | 116.99892 | 21266 ft | 373 kts | 275° |
| 2026-04-25 02:02 | -32.18720 | 116.96855 | 20819 ft | 371 kts | 275° |
| 2026-04-25 02:03 | -32.18422 | 116.93834 | 20364 ft | 369 kts | 275° |
| 2026-04-25 02:03 | -32.18123 | 116.90828 | 19942 ft | 367 kts | 275° |
| 2026-04-25 02:03 | -32.17811 | 116.87852 | 19492 ft | 366 kts | 275° |
| 2026-04-25 02:03 | -32.17450 | 116.84896 | 19090 ft | 363 kts | 276° |
| 2026-04-25 02:04 | -32.17062 | 116.81957 | 18727 ft | 360 kts | 276° |
| 2026-04-25 02:04 | -32.16667 | 116.79038 | 18243 ft | 359 kts | 277° |
| 2026-04-25 02:04 | -32.16276 | 116.76153 | 17905 ft | 353 kts | 277° |
| 2026-04-25 02:04 | -32.15895 | 116.73294 | 17442 ft | 352 kts | 277° |
| 2026-04-25 02:05 | -32.15521 | 116.70454 | 17032 ft | 349 kts | 277° |
| 2026-04-25 02:05 | -32.15153 | 116.67635 | 16648 ft | 346 kts | 277° |
| 2026-04-25 02:05 | -32.14788 | 116.64837 | 16272 ft | 343 kts | 277° |
| 2026-04-25 02:05 | -32.14580 | 116.62057 | 15893 ft | 339 kts | 268° |
| 2026-04-25 02:06 | -32.14827 | 116.59305 | 15523 ft | 336 kts | 262° |
| 2026-04-25 02:06 | -32.15132 | 116.56582 | 15156 ft | 334 kts | 262° |
| 2026-04-25 02:06 | -32.15435 | 116.53880 | 14786 ft | 331 kts | 263° |
| 2026-04-25 02:06 | -32.15732 | 116.51191 | 14423 ft | 329 kts | 263° |
| 2026-04-25 02:07 | -32.16021 | 116.48521 | 14053 ft | 327 kts | 264° |
| 2026-04-25 02:07 | -32.16305 | 116.45867 | 13652 ft | 324 kts | 263° |
| 2026-04-25 02:07 | -32.16587 | 116.43239 | 13257 ft | 322 kts | 263° |
| 2026-04-25 02:07 | -32.16866 | 116.40627 | 12865 ft | 319 kts | 263° |
| 2026-04-25 02:08 | -32.17143 | 116.38036 | 12472 ft | 317 kts | 263° |
| 2026-04-25 02:08 | -32.17418 | 116.35464 | 12084 ft | 314 kts | 263° |
| 2026-04-25 02:08 | -32.17689 | 116.32925 | 11564 ft | 310 kts | 263° |
| 2026-04-25 02:08 | -32.17959 | 116.30416 | 11023 ft | 305 kts | 263° |
| 2026-04-25 02:09 | -32.18223 | 116.27960 | 10589 ft | 297 kts | 262° |
| 2026-04-25 02:09 | -32.18481 | 116.25557 | 10066 ft | 297 kts | 262° |
| 2026-04-25 02:09 | -32.18741 | 116.23123 | 9657 ft | 295 kts | 262° |
| 2026-04-25 02:09 | -32.18991 | 116.20766 | 9475 ft | 285 kts | 262° |
| 2026-04-25 02:10 | -32.19230 | 116.18473 | 8995 ft | 280 kts | 262° |
| 2026-04-25 02:10 | -32.19467 | 116.16202 | 8433 ft | 278 kts | 262° |
| 2026-04-25 02:10 | -32.19664 | 116.13948 | 7925 ft | 274 kts | 268° |
| 2026-04-25 02:10 | -32.19690 | 116.11701 | 7483 ft | 274 kts | 268° |
| 2026-04-25 02:11 | -32.19719 | 116.09449 | 7072 ft | 274 kts | 268° |
| 2026-04-25 02:11 | -32.19752 | 116.07223 | 6871 ft | 266 kts | 268° |
| 2026-04-25 02:11 | -32.19787 | 116.05091 | 6756 ft | 254 kts | 268° |
| 2026-04-25 02:11 | -32.19788 | 116.03057 | 6688 ft | 242 kts | 274° |
| 2026-04-25 02:12 | -32.19461 | 116.01130 | 6392 ft | 240 kts | 283° |
| 2026-04-25 02:12 | -32.19043 | 115.99225 | 6032 ft | 240 kts | 283° |
| 2026-04-25 02:12 | -32.18631 | 115.97344 | 5686 ft | 239 kts | 283° |
| 2026-04-25 02:12 | -32.18217 | 115.95446 | 5339 ft | 239 kts | 283° |
| 2026-04-25 02:13 | -32.17803 | 115.93546 | 4983 ft | 239 kts | 283° |
| 2026-04-25 02:13 | -32.17259 | 115.91691 | 4563 ft | 243 kts | 301° |
| 2026-04-25 02:13 | -32.15962 | 115.90463 | 4080 ft | 244 kts | 340° |
| 2026-04-25 02:13 | -32.14288 | 115.90438 | 3596 ft | 244 kts | 14° |
| 2026-04-25 02:14 | -32.12668 | 115.91015 | 3110 ft | 242 kts | 15° |
| 2026-04-25 02:14 | -32.11093 | 115.91521 | 2981 ft | 225 kts | 14° |
| 2026-04-25 02:14 | -32.09647 | 115.91948 | 3001 ft | 206 kts | 13° |
| 2026-04-25 02:14 | -32.08321 | 115.92335 | 3007 ft | 186 kts | 13° |
| 2026-04-25 02:15 | -32.07142 | 115.92679 | 2903 ft | 168 kts | 13° |
| 2026-04-25 02:15 | -32.06016 | 115.93008 | 2508 ft | 163 kts | 13° |
| 2026-04-25 02:15 | -32.04936 | 115.93323 | 2112 ft | 158 kts | 14° |
| 2026-04-25 02:15 | -32.03878 | 115.93631 | 1705 ft | 154 kts | 15° |
| 2026-04-25 02:16 | -32.02886 | 115.93920 | 1512 ft | 141 kts | 15° |
| 2026-04-25 02:16 | -32.01960 | 115.94191 | 1337 ft | 134 kts | 15° |
| 2026-04-25 02:16 | -32.01065 | 115.94452 | 1165 ft | 131 kts | 15° |
| 2026-04-25 02:16 | -32.00189 | 115.94708 | 998 ft | 128 kts | 16° |
| 2026-04-25 02:17 | -31.99330 | 115.94959 | 821 ft | 126 kts | 15° |
| 2026-04-25 02:17 | -31.98486 | 115.95205 | 650 ft | 125 kts | 15° |
| 2026-04-25 02:17 | -31.97644 | 115.95447 | 480 ft | 124 kts | 14° |
| 2026-04-25 02:17 | -31.96809 | 115.95696 | 297 ft | 122 kts | 15° |
| 2026-04-25 02:18 | -31.95995 | 115.95934 | 146 ft | 122 kts | 14° |
| 2026-04-25 02:18 | -31.95200 | 115.96166 | 68 ft | 100 kts | 14° |
| 2026-04-25 02:18 | -31.94701 | 115.96309 | 64 ft | 42 kts | 14° |
| 2026-04-25 02:18 | -31.94512 | 115.96369 | 64 ft | 22 kts | 24° |
| 2026-04-25 02:19 | -31.94478 | 115.96512 | 62 ft | 20 kts | 101° |
| 2026-04-25 02:19 | -31.94504 | 115.96641 | 68 ft | 11 kts | 103° |
| 2026-04-25 02:19 | -31.94472 | 115.96719 | 64 ft | 12 kts | 32° |
| 2026-04-25 02:19 | -31.94387 | 115.96752 | 66 ft | 14 kts | 14° |
| 2026-04-25 02:20 | -31.94289 | 115.96781 | 68 ft | 15 kts | 14° |
| 2026-04-25 02:20 | -31.94189 | 115.96824 | 68 ft | 13 kts | 51° |
| 2026-04-25 02:20 | -31.94200 | 115.96916 | 60 ft | 8 kts | 107° |
| 2026-04-25 02:20 | -31.94251 | 115.96938 | 64 ft | 6 kts | 193° |
| 2026-04-25 02:21 | -31.94264 | 115.96934 | 63 ft | 2 kts | 194° |
| 2026-04-25 02:21 | -31.94273 | 115.96931 | 63 ft | 0 kts | 194° |